Time;durP1;ratioP1;P1;durP2;ratioP2;P2;SDS_P1;SDS_P2;PMS_P1;PMS_P2;Temp;Humidity;BMP_temperature;BMP_pressure;BME280_temperature;BME280_humidity;BME280_pressure;Samples;Min_cycle;Max_cycle;Signal;HPM_P1;HPM_P2
2022/02/03 00:00:42;;;;;;;30.15;9.23;;;;;;;6.26;83.95;101015.47;6368036;22;20018;-90
2022/02/03 00:03:24;;;;;;;22.85;8.90;;;;;;;6.26;84.39;101018.09;6368036;22;20322;-92
2022/02/03 00:06:01;;;;;;;24.27;8.90;;;;;;;6.24;84.39;101001.47;6368386;22;20019;-89
2022/02/03 00:16:59;;;;;;;22.92;9.27;;;;;;;6.51;85.09;101053.53;6345552;22;20045;-90
2022/02/03 00:25:41;;;;;;;26.25;9.15;;;;;;;6.39;85.46;100995.91;6373924;22;20022;-90
2022/02/03 00:28:26;;;;;;;24.23;9.23;;;;;;;6.63;85.14;101032.22;6346307;22;20067;-91
2022/02/03 00:31:05;;;;;;;23.85;8.98;;;;;;;6.55;85.73;101020.16;6369528;22;20516;-91
2022/02/03 00:33:40;;;;;;;24.75;9.20;;;;;;;6.33;85.71;100952.16;6370969;22;20026;-90
2022/02/03 00:36:30;;;;;;;27.38;9.30;;;;;;;6.66;86.60;101011.13;6368988;22;20022;-90
2022/02/03 00:50:11;;;;;;;22.73;9.63;;;;;;;6.69;86.80;101013.69;6363669;22;20040;-90
2022/02/03 00:52:40;;;;;;;20.33;8.77;;;;;;;6.46;87.54;100976.44;6366722;22;20051;-90
2022/02/03 00:55:09;;;;;;;20.27;9.27;;;;;;;6.77;87.72;101017.94;6365309;22;20029;-89
2022/02/03 00:57:46;;;;;;;20.88;9.48;;;;;;;6.51;87.60;100979.00;6337811;22;20410;-91
2022/02/03 01:00:15;;;;;;;21.38;9.23;;;;;;;6.74;88.20;101025.91;6367848;22;20101;-90
2022/02/03 01:02:50;;;;;;;20.80;9.10;;;;;;;6.68;88.45;101019.84;6344192;22;20020;-94
2022/02/03 01:05:37;;;;;;;22.95;9.35;;;;;;;6.79;88.00;101030.13;6273691;22;20015;-90
2022/02/03 01:08:15;;;;;;;20.13;8.73;;;;;;;6.74;87.76;101012.72;6275335;22;20073;-90
2022/02/03 01:10:51;;;;;;;19.75;9.05;;;;;;;6.74;87.67;101013.59;6273515;22;20028;-89
2022/02/03 01:19:21;;;;;;;19.50;9.65;;;;;;;6.66;88.83;101011.13;6274835;22;20479;-91
2022/02/03 01:44:28;;;;;;;21.73;9.88;;;;;;;6.41;94.14;100999.38;6383653;22;20019;-94
2022/02/03 01:47:12;;;;;;;20.77;9.90;;;;;;;6.28;94.51;100980.34;6372085;22;20101;-90
2022/02/03 01:52:32;;;;;;;23.90;10.55;;;;;;;6.33;95.39;100974.97;6372647;22;19920;-90
2022/02/03 01:55:05;;;;;;;24.60;10.73;;;;;;;6.36;94.75;100989.84;6372383;22;20433;-90
2022/02/03 01:57:54;;;;;;;26.35;10.70;;;;;;;6.37;95.67;101002.09;6372102;22;20040;-90
2022/02/03 02:00:22;;;;;;;23.60;11.25;;;;;;;6.09;96.63;100965.84;6368851;22;20044;-90
2022/02/03 02:03:11;;;;;;;20.60;11.20;;;;;;;6.27;97.58;100997.03;6343286;22;20087;-91
2022/02/03 02:06:24;;;;;;;23.10;11.40;;;;;;;6.06;97.90;100962.38;6369400;22;20014;-91
2022/02/03 02:09:04;;;;;;;25.80;12.27;;;;;;;6.21;99.05;100993.63;6334544;22;20018;-91
2022/02/03 02:12:02;;;;;;;26.77;12.43;;;;;;;6.17;99.64;100989.31;6370515;22;20438;-91
2022/02/03 02:19:04;;;;;;;24.15;12.38;;;;;;;5.92;100.00;100949.50;6370902;22;20124;-92
2022/02/03 02:38:15;;;;;;;25.55;12.38;;;;;;;5.97;100.00;100955.56;6369106;22;20014;-91
2022/02/03 02:43:54;;;;;;;31.92;12.98;;;;;;;5.97;100.00;100937.16;6369635;22;20086;-91
2022/02/03 02:46:32;;;;;;;25.17;13.43;;;;;;;5.85;100.00;100913.69;6369075;22;20015;-92
2022/02/03 02:49:27;;;;;;;30.88;15.07;;;;;;;5.85;100.00;100901.41;6364712;22;20020;-91
2022/02/03 02:52:05;;;;;;;31.23;14.55;;;;;;;5.91;100.00;100896.06;6368752;22;20085;-90
2022/02/03 02:55:11;;;;;;;27.92;14.30;;;;;;;6.07;100.00;100912.41;6340712;22;20041;-91
2022/02/03 02:58:06;;;;;;;32.53;15.93;;;;;;;6.18;100.00;100922.69;6368391;22;20473;-91
2022/02/03 03:32:34;;;;;;;31.58;18.35;;;;;;;6.12;100.00;100857.09;6335182;22;20015;-91
2022/02/03 03:37:48;;;;;;;37.95;18.20;;;;;;;6.18;100.00;100854.31;6339009;22;20346;-94
2022/02/03 03:40:18;;;;;;;41.85;19.15;;;;;;;6.11;100.00;100839.59;6334116;22;20037;-91
2022/02/03 03:43:06;;;;;;;40.67;18.48;;;;;;;6.16;100.00;100845.59;6336673;22;20019;-91
2022/02/03 03:45:38;;;;;;;37.95;18.35;;;;;;;6.33;100.00;100877.66;6333190;22;20640;-91
2022/02/03 03:48:09;;;;;;;42.88;19.23;;;;;;;6.33;100.00;100873.25;6333836;22;20072;-93
2022/02/03 03:50:40;;;;;;;;;;;;;;;6.46;100.00;100886.13;6333776;22;20035;-92
2022/02/03 03:53:22;;;;;;;37.40;17.48;;;;;;;6.27;100.00;100851.50;6336095;22;19914;-90
2022/02/03 03:56:26;;;;;;;38.95;19.77;;;;;;;6.48;100.00;100887.84;6337557;22;20019;-91
2022/02/03 03:59:23;;;;;;;41.42;19.77;;;;;;;6.19;100.00;100835.03;6335926;22;20049;-93
2022/02/03 04:38:31;;;;;;;42.90;21.85;;;;;;;6.64;100.00;100856.78;6290827;22;20023;-93
2022/02/03 05:02:55;;;;;;;44.30;22.45;;;;;;;6.96;100.00;100870.03;6369667;22;20079;-91
2022/02/03 05:06:15;;;;;;;47.58;22.63;;;;;;;6.83;100.00;100837.03;6370928;22;20034;-91
2022/02/03 05:09:26;;;;;;;45.25;23.38;;;;;;;6.68;100.00;100803.19;6371084;22;20471;-91
2022/02/03 05:22:15;;;;;;;48.30;23.75;;;;;;;6.92;100.00;100828.03;6369004;22;20011;-91
2022/02/03 05:43:42;;;;;;;44.80;24.60;;;;;;;6.94;100.00;100765.66;6367985;22;20018;-92
2022/02/03 06:05:46;;;;;;;39.17;22.38;;;;;;;7.16;100.00;100761.56;6368576;22;20053;-91
2022/02/03 06:08:35;;;;;;;36.08;21.63;;;;;;;7.00;100.00;100737.41;6341091;22;20029;-90
2022/02/03 06:17:16;;;;;;;37.90;21.75;;;;;;;6.87;100.00;100724.63;6335760;22;20015;-91
2022/02/03 06:22:45;;;;;;;38.22;21.05;;;;;;;6.98;100.00;100727.81;6334833;22;20023;-90
2022/02/03 06:27:58;;;;;;;31.90;20.00;;;;;;;7.05;100.00;100732.03;6336160;22;20053;-90
2022/02/03 06:30:27;;;;;;;32.30;20.52;;;;;;;6.89;100.00;100693.84;6336757;22;20105;-91
2022/02/03 06:32:53;;;;;;;34.00;19.95;;;;;;;7.32;100.00;100762.88;6307523;22;20019;-90
2022/02/03 06:35:25;;;;;;;32.83;19.42;;;;;;;7.15;100.00;100733.50;6309460;22;20018;-90
2022/02/03 06:37:56;;;;;;;30.00;19.00;;;;;;;7.24;100.00;100748.19;6335857;22;20022;-91
2022/02/03 06:40:26;;;;;;;30.90;17.95;;;;;;;7.19;100.00;100729.00;6334253;22;20094;-92
2022/02/03 06:42:58;;;;;;;29.90;18.70;;;;;;;7.14;100.00;100721.22;6335849;22;20019;-89
2022/02/03 06:45:39;;;;;;;;;;;;;;;7.40;100.00;100763.50;6336541;22;20014;-91
2022/02/03 06:48:14;;;;;;;26.73;16.52;;;;;;;7.29;100.00;100744.50;6308107;22;20005;-90
2022/02/03 06:50:48;;;;;;;30.73;18.42;;;;;;;7.05;100.00;100705.69;6337829;22;20015;-93
2022/02/03 06:53:22;;;;;;;27.70;17.75;;;;;;;7.14;100.00;100726.50;6337675;22;20094;-91
2022/02/03 06:55:52;;;;;;;28.60;17.83;;;;;;;7.32;100.00;100747.06;6338214;22;20342;-92
2022/02/03 06:58:27;;;;;;;31.45;18.27;;;;;;;7.06;100.00;100703.94;6337589;22;20086;-90
2022/02/03 07:03:32;;;;;;;24.85;16.40;;;;;;;7.21;100.00;100749.13;6313360;22;20029;-89
2022/02/03 07:06:09;;;;;;;28.65;17.38;;;;;;;7.17;100.00;100733.47;6340386;22;20114;-88
2022/02/03 07:08:37;;;;;;;30.27;18.23;;;;;;;7.29;100.00;100755.03;6339227;22;20019;-89
2022/02/03 07:11:09;;;;;;;26.08;16.08;;;;;;;7.06;100.00;100714.47;6335887;22;20019;-93
2022/02/03 07:13:36;;;;;;;29.67;17.65;;;;;;;7.10;100.00;100722.22;6337141;22;20468;-91
2022/02/03 07:16:04;;;;;;;27.38;17.05;;;;;;;7.31;100.00;100758.50;6310001;22;20026;-92
2022/02/03 07:18:31;;;;;;;27.10;17.05;;;;;;;7.19;100.00;100739.56;6337203;22;20023;-93
2022/02/03 07:21:12;;;;;;;29.80;17.27;;;;;;;7.02;100.00;100697.88;6332539;22;20019;-93
2022/02/03 07:23:42;;;;;;;28.00;16.85;;;;;;;7.20;100.00;100734.25;6333218;22;20071;-89
2022/02/03 07:26:10;;;;;;;25.33;16.30;;;;;;;7.14;100.00;100708.06;6337716;22;20034;-92
2022/02/03 07:28:38;;;;;;;26.77;16.55;;;;;;;7.34;100.00;100741.75;6332648;22;20015;-89
2022/02/03 07:31:07;;;;;;;25.73;17.27;;;;;;;7.46;100.00;100756.34;6334945;22;20094;-89
2022/02/03 07:34:04;;;;;;;;;;;;;;;;;;;;;
2022/02/03 07:36:39;;;;;;;27.60;16.85;;;;;;;7.26;100.00;100715.63;6334713;22;20037;-89
2022/02/03 07:39:11;;;;;;;26.90;16.17;;;;;;;7.49;100.00;100740.44;6338859;22;20019;-91
2022/02/03 07:41:43;;;;;;;23.15;15.23;;;;;;;7.49;100.00;100730.78;6333232;22;20034;-92
2022/02/03 07:44:13;;;;;;;25.00;15.60;;;;;;;7.36;100.00;100688.13;6336839;22;20076;-90
2022/02/03 07:46:40;;;;;;;;;;;;;;;7.78;100.00;100737.81;6335976;22;20064;-90
2022/02/03 07:49:24;;;;;;;22.42;14.10;;;;;;;7.65;100.00;100704.84;6336369;22;19991;-90
2022/02/03 07:55:20;;;;;;;19.92;13.38;;;;;;;7.85;100.00;100726.19;6340257;22;20011;-90
2022/02/03 07:57:49;;;;;;;19.40;12.63;;;;;;;7.84;100.00;100695.47;6341337;22;20038;-90
2022/02/03 08:00:23;;;;;;;22.00;12.10;;;;;;;7.80;100.00;100680.63;6338748;22;20026;-90
2022/02/03 08:03:12;;;;;;;20.90;13.25;;;;;;;7.81;100.00;100678.88;6339966;22;20076;-93
2022/02/03 08:06:05;;;;;;;22.52;13.63;;;;;;;7.83;100.00;100667.38;6329586;22;20026;-91
2022/02/03 08:08:42;;;;;;;20.95;13.18;;;;;;;7.86;100.00;100666.41;6340556;22;20030;-91
2022/02/03 08:11:21;;;;;;;21.08;13.15;;;;;;;7.87;100.00;100673.41;6341684;22;20060;-91
2022/02/03 08:14:07;;;;;;;19.77;12.90;;;;;;;8.09;100.00;100708.72;6318900;22;20038;-91
2022/02/03 08:16:42;;;;;;;20.23;12.82;;;;;;;7.91;100.00;100673.25;6345809;22;20030;-91
2022/02/03 08:19:30;;;;;;;21.73;13.27;;;;;;;8.09;100.00;100703.47;6345858;22;20018;-90
2022/02/03 08:22:19;;;;;;;18.70;12.13;;;;;;;7.96;100.00;100668.69;6342829;22;20027;-91
2022/02/03 08:25:14;;;;;;;17.95;11.50;;;;;;;8.05;100.00;100689.50;6340427;22;20023;-90
2022/02/03 08:31:11;;;;;;;21.85;12.02;;;;;;;7.91;100.00;100628.44;6334942;22;20019;-90
2022/02/03 08:33:57;;;;;;;21.63;12.45;;;;;;;8.27;100.00;100683.53;6335516;22;20496;-91
2022/02/03 08:36:33;;;;;;;16.58;10.80;;;;;;;8.23;100.00;100687.19;6313488;22;20057;-91
2022/02/03 08:39:10;;;;;;;20.05;11.27;;;;;;;7.94;100.00;100636.25;6341629;22;20022;-91
2022/02/03 08:41:50;;;;;;;21.25;12.40;;;;;;;8.18;100.00;100675.94;6313474;22;20070;-90
2022/02/03 08:44:25;;;;;;;21.00;12.75;;;;;;;8.03;100.00;100669.34;6339845;22;20037;-91
2022/02/03 08:46:53;;;;;;;19.75;12.65;;;;;;;7.73;100.00;100615.81;6339624;22;20030;-91
2022/02/03 08:49:28;;;;;;;21.52;12.63;;;;;;;7.84;100.00;100644.50;6340207;22;20050;-90
2022/02/03 08:52:08;;;;;;;23.05;13.30;;;;;;;8.19;100.00;100685.53;6340254;22;20021;-90
2022/02/03 08:54:37;;;;;;;21.60;12.10;;;;;;;8.12;100.00;100670.84;6341657;22;20053;-90
2022/02/03 08:57:15;;;;;;;21.63;12.50;;;;;;;8.06;100.00;100654.28;6341568;22;20433;-91
2022/02/03 09:00:10;;;;;;;22.65;12.93;;;;;;;8.27;100.00;100672.97;6315411;22;20026;-89
2022/02/03 09:58:37;;;;;;;12.50;7.90;;;;;;;8.84;94.97;100612.06;6343175;22;20089;-88
2022/02/03 10:01:08;;;;;;;10.98;7.20;;;;;;;8.84;95.17;100592.69;6316366;22;20498;-89
2022/02/03 10:03:47;;;;;;;10.70;7.72;;;;;;;9.02;94.14;100605.22;6309479;22;20082;-88
2022/02/03 10:06:19;;;;;;;14.98;7.45;;;;;;;8.93;94.45;100600.31;6309363;22;20015;-88
2022/02/03 10:08:52;;;;;;;12.52;6.90;;;;;;;9.00;94.67;100593.88;6309793;22;20019;-88
2022/02/03 10:11:29;;;;;;;11.15;7.57;;;;;;;8.94;93.77;100584.41;6310813;22;20227;-88
2022/02/03 10:13:58;;;;;;;10.18;7.43;;;;;;;9.07;93.41;100595.38;6312034;22;20088;-89
2022/02/03 10:16:36;;;;;;;11.40;7.15;;;;;;;9.16;92.68;100587.09;6310566;22;20019;-89
2022/02/03 10:19:16;;;;;;;8.55;6.75;;;;;;;9.12;91.85;100580.22;6311476;22;20023;-87
2022/02/03 10:21:47;;;;;;;9.45;6.70;;;;;;;9.01;92.45;100570.03;6311161;22;20023;-90
2022/02/03 10:24:17;;;;;;;;;;;;;;;9.10;92.61;100593.47;6310949;22;20039;-87
2022/02/03 10:26:49;;;;;;;9.88;6.45;;;;;;;8.60;93.87;100524.06;6311158;22;19933;-89
2022/02/03 10:29:31;;;;;;;11.55;6.90;;;;;;;8.71;93.63;100543.00;6312625;22;20019;-88
2022/02/03 10:31:59;;;;;;;10.18;6.28;;;;;;;8.56;94.05;100519.81;6312250;22;20388;-89
2022/02/03 10:34:50;;;;;;;10.57;6.28;;;;;;;8.71;93.70;100529.78;6309858;22;20056;-88
2022/02/03 10:37:40;;;;;;;7.75;5.82;;;;;;;8.64;93.75;100519.53;6309731;22;20098;-90
2022/02/03 10:40:47;;;;;;;9.43;5.88;;;;;;;8.87;93.83;100569.69;6307978;22;20034;-87
2022/02/03 10:55:07;;;;;;;7.82;4.90;;;;;;;8.66;92.89;100530.88;6309271;22;20027;-88
2022/02/03 11:10:10;;;;;;;9.77;6.53;;;;;;;8.42;93.62;100451.69;6340614;22;20022;-88
2022/02/03 11:12:48;;;;;;;13.05;6.30;;;;;;;8.71;93.34;100482.28;6340331;22;20183;-91
2022/02/03 11:15:20;;;;;;;9.43;5.82;;;;;;;8.81;92.68;100490.72;6336265;22;20076;-89
2022/02/03 11:17:49;;;;;;;10.48;5.93;;;;;;;8.96;91.78;100484.00;6342096;22;20059;-90
2022/02/03 11:20:19;;;;;;;6.93;5.15;;;;;;;8.99;91.62;100468.00;6340411;22;20030;-89
2022/02/03 11:23:16;;;;;;;8.43;5.93;;;;;;;9.09;91.17;100477.31;6316935;22;20034;-89
2022/02/03 11:40:14;;;;;;;5.25;3.75;;;;;;;9.33;85.94;100457.81;6340869;22;20028;-90
2022/02/03 12:03:14;;;;;;;4.05;3.05;;;;;;;9.48;85.68;100445.75;6340448;22;20018;-92
2022/02/03 12:06:23;;;;;;;3.80;2.63;;;;;;;9.29;84.31;100384.00;6314231;22;20050;-89
2022/02/03 12:22:21;;;;;;;4.03;2.38;;;;;;;9.70;81.54;100440.41;6341471;22;20015;-91
2022/02/03 12:25:11;;;;;;;3.40;2.10;;;;;;;9.59;80.60;100390.66;6340823;22;20023;-90
2022/02/03 12:28:07;;;;;;;2.40;1.88;;;;;;;9.91;79.28;100436.88;6344617;22;20025;-90
2022/02/03 12:39:13;;;;;;;1.77;1.48;;;;;;;9.85;77.19;100405.38;6340722;22;20022;-90
2022/02/03 12:42:02;;;;;;;3.38;1.70;;;;;;;9.74;77.14;100399.72;6339010;22;20041;-90
2022/02/03 12:44:38;;;;;;;1.80;1.27;;;;;;;9.67;77.50;100377.94;6314907;22;20011;-90
2022/02/03 12:47:08;;;;;;;1.92;1.73;;;;;;;9.82;77.41;100401.06;6340087;22;20098;-90
2022/02/03 12:49:37;;;;;;;2.85;1.55;;;;;;;9.70;77.50;100398.13;6339430;22;20015;-89
2022/02/03 12:52:26;;;;;;;1.88;1.52;;;;;;;9.58;78.64;100388.06;6312781;22;20018;-90
2022/02/03 12:54:57;;;;;;;2.28;1.48;;;;;;;9.39;77.97;100351.84;6341213;22;20018;-89
2022/02/03 12:57:33;;;;;;;1.40;1.30;;;;;;;9.57;78.40;100378.44;6341724;22;20018;-88
2022/02/03 13:00:14;;;;;;;3.28;1.80;;;;;;;9.09;78.79;100295.03;6341226;22;20015;-90
2022/02/03 13:02:50;;;;;;;2.03;1.70;;;;;;;9.23;79.30;100332.28;6339688;22;20019;-90
2022/02/03 13:05:27;;;;;;;2.33;1.58;;;;;;;9.23;78.94;100319.06;6314772;22;20076;-89
2022/02/03 13:07:58;;;;;;;3.22;1.50;;;;;;;9.25;79.04;100306.66;6342607;22;20381;-91
2022/02/03 13:10:31;;;;;;;2.08;1.58;;;;;;;9.34;78.78;100306.25;6315765;22;20531;-92
2022/02/03 13:13:37;;;;;;;3.20;1.50;;;;;;;9.31;78.85;100293.16;6341369;22;20023;-91
2022/02/03 13:16:10;;;;;;;3.60;1.15;;;;;;;9.50;78.50;100328.44;6342360;22;20054;-89
2022/02/03 13:18:50;;;;;;;1.33;1.20;;;;;;;9.56;78.57;100323.84;6344018;22;20015;-89
2022/02/03 13:21:31;;;;;;;1.55;1.40;;;;;;;9.46;78.17;100294.28;6316023;22;20121;-90
2022/02/03 13:24:23;;;;;;;1.70;1.38;;;;;;;9.37;78.14;100270.91;6314775;22;20584;-91
2022/02/03 13:26:50;;;;;;;2.75;1.60;;;;;;;9.42;78.34;100298.88;6315036;22;20015;-90
2022/02/03 13:29:28;;;;;;;1.63;1.38;;;;;;;9.37;78.08;100284.97;6316394;22;20046;-91
2022/02/03 13:32:15;;;;;;;1.40;1.20;;;;;;;9.50;77.65;100291.44;6337389;22;20048;-92
2022/02/03 13:35:03;;;;;;;5.47;1.80;;;;;;;9.50;78.16;100278.22;6314729;22;20022;-91
2022/02/03 13:37:37;;;;;;;4.57;1.55;;;;;;;9.60;77.49;100288.41;6342209;22;20019;-90
2022/02/03 13:40:15;;;;;;;1.92;1.27;;;;;;;9.31;78.23;100250.03;6342401;22;20072;-90
2022/02/03 13:43:01;;;;;;;4.55;2.55;;;;;;;9.61;77.73;100313.88;6344024;22;20022;-90
2022/02/03 13:45:28;;;;;;;2.53;1.70;;;;;;;9.49;77.95;100289.72;6343977;22;20019;-89
2022/02/03 13:48:12;;;;;;;1.92;1.58;;;;;;;9.51;78.52;100287.00;6343211;22;20015;-91
2022/02/03 13:50:59;;;;;;;2.35;1.73;;;;;;;9.48;78.03;100273.94;6341919;22;20046;-90
2022/02/03 14:11:17;;;;;;;1.90;1.63;;;;;;;9.53;78.58;100279.03;6347256;22;20029;-90
2022/02/03 14:19:15;;;;;;;1.98;1.73;;;;;;;9.06;78.30;100205.34;6345213;22;20038;-89
2022/02/03 14:21:45;;;;;;;2.15;1.80;;;;;;;8.99;79.12;100195.97;6323483;22;20018;-88
2022/02/03 14:27:21;;;;;;;3.58;1.90;;;;;;;8.98;78.70;100196.88;6342791;22;20432;-90
2022/02/03 14:30:03;;;;;;;3.05;2.28;;;;;;;8.94;78.52;100196.19;6342200;22;20021;-90
2022/02/03 14:32:42;;;;;;;4.07;2.67;;;;;;;9.02;78.38;100225.75;6343555;22;20022;-90
2022/02/03 14:35:11;;;;;;;2.70;2.25;;;;;;;8.98;78.21;100223.28;6342524;22;20339;-91
2022/02/03 14:38:00;;;;;;;4.07;2.58;;;;;;;9.05;78.38;100227.41;6344112;22;20443;-92
2022/02/03 14:42:57;;;;;;;4.78;2.50;;;;;;;9.19;78.60;100263.78;6336771;22;20011;-90
2022/02/03 14:45:25;;;;;;;3.67;2.80;;;;;;;9.08;79.16;100259.84;6337730;22;20098;-89
2022/02/03 14:47:52;;;;;;;3.55;3.00;;;;;;;9.02;79.00;100231.03;6342619;22;20038;-91
2022/02/03 14:50:20;;;;;;;6.35;4.13;;;;;;;9.08;77.77;100211.44;6345753;22;20404;-89
2022/02/03 14:53:03;;;;;;;7.55;4.38;;;;;;;8.88;77.49;100177.09;6342606;22;20420;-90
2022/02/03 14:58:29;;;;;;;9.02;4.72;;;;;;;9.02;78.22;100240.72;6339209;22;20018;-89
2022/02/03 15:01:00;;;;;;;6.83;4.40;;;;;;;8.94;78.34;100216.44;6338176;22;20458;-88
2022/02/03 15:03:34;;;;;;;6.90;4.30;;;;;;;8.68;78.59;100183.22;6335633;22;20030;-92
2022/02/03 15:06:10;;;;;;;7.85;5.03;;;;;;;8.80;78.45;100198.56;6339350;22;20074;-91
2022/02/03 15:11:15;;;;;;;12.85;6.57;;;;;;;8.88;78.16;100206.13;6335050;22;20022;-90
2022/02/03 15:13:48;;;;;;;7.68;5.38;;;;;;;8.63;76.97;100194.00;6333851;22;20334;-92
2022/02/03 15:16:18;;;;;;;9.93;5.80;;;;;;;8.81;77.11;100225.81;6336801;22;20498;-90
2022/02/03 15:19:08;;;;;;;9.60;6.82;;;;;;;8.81;76.19;100246.94;6335652;22;20018;-92
2022/02/03 15:21:36;;;;;;;9.50;5.97;;;;;;;8.51;75.70;100202.41;6338169;22;20072;-91
2022/02/03 15:24:04;;;;;;;9.25;6.03;;;;;;;8.40;76.35;100209.91;6309555;22;20439;-91
2022/02/03 15:26:35;;;;;;;8.05;5.60;;;;;;;8.39;75.46;100192.34;6338333;22;20029;-91
2022/02/03 15:29:02;;;;;;;8.98;6.30;;;;;;;8.50;75.73;100205.97;6341965;22;20015;-90
2022/02/03 15:31:35;;;;;;;7.13;4.82;;;;;;;8.56;75.62;100226.84;6342449;22;20112;-90
2022/02/03 15:34:25;;;;;;;7.38;5.40;;;;;;;8.31;75.57;100168.91;6335520;22;20324;-92
2022/02/03 15:37:05;;;;;;;8.77;6.18;;;;;;;8.32;75.73;100185.63;6335461;22;20460;-92
2022/02/03 15:39:41;;;;;;;9.20;5.57;;;;;;;8.45;75.89;100226.44;6334818;22;20832;-91
2022/02/03 15:42:08;;;;;;;9.23;6.22;;;;;;;8.28;76.10;100195.41;6335858;22;20037;-90
2022/02/03 15:44:39;;;;;;;7.53;5.13;;;;;;;8.51;75.52;100220.00;6337018;22;20026;-90
2022/02/03 15:47:15;;;;;;;6.63;4.50;;;;;;;8.23;74.88;100178.06;6336815;22;20653;-89
2022/02/03 16:02:52;;;;;;;3.40;2.75;;;;;;;8.39;74.83;100218.75;6339929;22;20007;-91
2022/02/03 16:14:06;;;;;;;6.82;2.47;;;;;;;8.30;74.57;100208.53;6337629;22;20466;-92
2022/02/03 16:19:10;;;;;;;4.47;3.03;;;;;;;8.30;74.92;100230.50;6336133;22;20015;-90
2022/02/03 16:22:14;;;;;;;3.03;2.10;;;;;;;8.13;75.08;100205.72;6333042;22;20082;-91
2022/02/03 16:24:44;;;;;;;5.25;2.83;;;;;;;8.08;75.60;100196.22;6333764;22;20022;-91
2022/02/03 16:41:49;;;;;;;3.50;2.30;;;;;;;7.94;77.07;100217.00;6340943;22;20044;-91
2022/02/03 16:52:32;;;;;;;2.95;2.08;;;;;;;8.01;77.88;100234.31;6338848;22;20184;-92
2022/02/03 16:55:01;;;;;;;2.22;1.92;;;;;;;7.78;78.29;100207.09;6310365;22;20454;-92
2022/02/03 16:57:28;;;;;;;3.10;2.20;;;;;;;7.84;78.20;100217.41;6336610;22;20053;-92
2022/02/03 17:00:04;;;;;;;4.65;2.50;;;;;;;7.89;77.82;100226.84;6338992;22;20075;-91
2022/02/03 17:02:52;;;;;;;3.60;2.13;;;;;;;7.75;78.02;100184.34;6340744;22;20026;-93
2022/02/03 17:05:21;;;;;;;4.30;2.80;;;;;;;7.90;77.96;100207.47;6342792;22;20015;-92
2022/02/03 17:07:48;;;;;;;3.00;2.20;;;;;;;7.92;77.77;100196.88;6344311;22;20015;-92
2022/02/03 17:10:18;;;;;;;4.70;2.58;;;;;;;7.85;77.64;100201.53;6344013;22;20136;-93
2022/02/03 17:12:49;;;;;;;3.55;2.45;;;;;;;7.94;78.20;100217.00;6346094;22;20015;-95
2022/02/03 17:15:21;;;;;;;3.25;2.22;;;;;;;7.68;78.54;100182.88;6340774;22;20102;-94
2022/02/03 17:18:07;;;;;;;3.17;2.35;;;;;;;7.88;78.60;100233.03;6342352;22;20046;-92
2022/02/03 17:20:45;;;;;;;3.03;2.40;;;;;;;7.65;79.18;100196.19;6348277;22;20076;-94
2022/02/03 17:23:22;;;;;;;3.50;2.17;;;;;;;7.59;79.32;100193.75;6348646;22;20018;-91
2022/02/03 17:26:09;;;;;;;4.57;2.20;;;;;;;7.68;79.34;100211.88;6344589;22;20031;-89
2022/02/03 17:28:56;;;;;;;5.40;2.45;;;;;;;7.63;79.60;100208.53;6351194;22;20338;-92
2022/02/03 17:31:45;;;;;;;3.15;2.10;;;;;;;7.78;79.40;100215.00;6345110;22;20019;-88
2022/02/03 18:10:40;;;;;;;3.55;1.90;;;;;;;7.90;79.66;100225.94;6342932;22;20018;-89
2022/02/03 18:30:20;;;;;;;4.68;2.95;;;;;;;7.35;80.52;100159.53;6345894;22;20527;-90
2022/02/03 18:35:46;;;;;;;5.68;3.17;;;;;;;7.49;79.99;100176.59;6345404;22;20026;-91
2022/02/03 18:50:14;;;;;;;6.90;4.13;;;;;;;7.35;80.59;100170.06;6296728;22;20496;-94
2022/02/03 18:52:56;;;;;;;5.25;3.95;;;;;;;7.47;80.94;100194.22;6317493;22;20019;-94
2022/02/03 18:55:39;;;;;;;6.05;3.90;;;;;;;7.52;81.25;100197.56;6347298;22;20304;-93
2022/02/03 19:09:25;;;;;;;5.25;3.80;;;;;;;7.67;81.15;100207.53;6344091;22;20019;-90
2022/02/03 19:13:08;;;;;;;6.95;4.90;;;;;;;7.74;81.16;100230.06;6344140;22;20022;-91
2022/02/03 19:28:45;;;;;;;5.68;4.10;;;;;;;7.69;81.92;100234.69;6343041;22;20022;-90
2022/02/03 20:07:05;;;;;;;6.03;4.15;;;;;;;7.46;80.57;100201.28;6333343;22;20019;-90
2022/02/03 20:12:07;;;;;;;6.13;4.22;;;;;;;7.46;81.01;100201.28;6335054;22;20068;-91
2022/02/03 20:14:34;;;;;;;6.82;4.50;;;;;;;7.53;80.59;100196.66;6335248;22;20052;-91
2022/02/03 20:17:01;;;;;;;6.05;4.35;;;;;;;7.53;79.46;100186.97;6333300;22;20098;-92
2022/02/03 20:19:35;;;;;;;7.82;4.90;;;;;;;7.50;79.83;100196.75;6333897;22;20891;-91
2022/02/03 20:22:03;;;;;;;7.13;5.22;;;;;;;7.17;80.31;100152.31;6305211;22;20019;-91
2022/02/03 20:24:30;;;;;;;7.20;5.10;;;;;;;7.39;79.92;100194.53;6331132;22;20284;-90
2022/02/03 20:26:57;;;;;;;7.05;4.50;;;;;;;7.31;80.47;100186.03;6327263;22;20018;-91
2022/02/03 20:29:25;;;;;;;7.63;5.15;;;;;;;7.47;80.12;100217.94;6332630;22;20022;-90
2022/02/03 20:31:52;;;;;;;7.90;5.28;;;;;;;7.46;80.17;100221.50;6333181;22;20115;-92
2022/02/03 20:34:19;;;;;;;7.50;5.45;;;;;;;7.36;80.46;100211.31;6332281;22;20022;-89
2022/02/03 20:36:45;;;;;;;7.90;5.05;;;;;;;7.43;80.82;100219.81;6334173;22;20019;-91
2022/02/03 20:39:15;;;;;;;8.40;5.85;;;;;;;7.32;80.30;100199.16;6335355;22;20029;-91
2022/02/03 20:41:47;;;;;;;8.48;6.05;;;;;;;7.31;80.55;100202.69;6309738;22;20076;-92
2022/02/03 20:44:14;;;;;;;10.02;6.40;;;;;;;7.03;80.43;100160.72;6339220;22;20030;-92
2022/02/03 20:46:44;;;;;;;8.43;5.78;;;;;;;7.21;80.21;100167.09;6338926;22;20010;-91
2022/02/03 20:49:13;;;;;;;8.73;6.00;;;;;;;7.36;79.61;100198.13;6307369;22;20026;-91
2022/02/03 20:51:44;;;;;;;10.48;6.18;;;;;;;7.23;80.14;100188.97;6353387;22;20038;-90
2022/02/03 20:54:11;;;;;;;9.98;6.50;;;;;;;7.16;80.63;100182.19;6318760;22;20401;-92
2022/02/03 20:56:38;;;;;;;9.55;6.55;;;;;;;7.47;80.39;100225.84;6332215;22;20033;-90
2022/02/03 20:59:09;;;;;;;10.90;6.28;;;;;;;7.40;80.58;100210.25;6332807;22;20019;-90
2022/02/03 21:01:38;;;;;;;8.38;6.30;;;;;;;7.26;80.16;100191.47;6336531;22;20026;-90
2022/02/03 21:04:13;;;;;;;7.95;5.88;;;;;;;7.37;80.14;100218.28;6335583;22;20030;-91
2022/02/03 21:06:43;;;;;;;8.73;6.13;;;;;;;7.27;80.67;100200.22;6334559;22;20049;-90
2022/02/03 21:09:12;;;;;;;9.93;6.07;;;;;;;7.03;80.02;100158.09;6337396;22;20042;-93
2022/02/03 21:11:45;;;;;;;11.18;6.97;;;;;;;7.12;80.30;100167.41;6307951;22;20446;-89
2022/02/03 21:14:11;;;;;;;9.25;6.03;;;;;;;7.27;79.48;100182.66;6308223;22;20497;-90
2022/02/03 21:16:40;;;;;;;7.50;5.90;;;;;;;7.16;79.11;100165.53;6306600;22;20046;-90
2022/02/03 21:19:07;;;;;;;10.23;6.72;;;;;;;7.10;79.26;100153.44;6332886;22;20023;-93
2022/02/03 21:21:34;;;;;;;12.25;7.43;;;;;;;7.08;79.43;100160.56;6335034;22;20019;-92
2022/02/03 21:24:01;;;;;;;11.13;6.40;;;;;;;7.25;79.79;100195.00;6333232;22;20232;-92
2022/02/03 21:26:34;;;;;;;9.45;6.18;;;;;;;7.19;79.15;100174.19;6335171;22;20023;-90
2022/02/03 21:29:12;;;;;;;8.30;5.25;;;;;;;7.21;78.27;100153.94;6335574;22;20019;-90
2022/02/03 21:31:39;;;;;;;7.25;4.88;;;;;;;7.10;78.52;100142.91;6336015;22;20046;-91
2022/02/03 21:34:12;;;;;;;7.15;5.28;;;;;;;7.23;78.45;100170.53;6334300;22;20618;-92
2022/02/03 21:36:41;;;;;;;8.75;5.15;;;;;;;7.15;78.34;100162.03;6333919;22;20077;-89
2022/02/03 21:39:14;;;;;;;7.70;4.95;;;;;;;6.95;78.07;100138.19;6308009;22;20419;-91
2022/02/03 21:41:41;;;;;;;8.45;5.45;;;;;;;7.20;78.17;100181.16;6333650;22;20018;-92
2022/02/03 21:44:12;;;;;;;7.97;5.50;;;;;;;7.18;77.93;100180.38;6337531;22;20026;-94
2022/02/03 21:46:41;;;;;;;8.20;5.57;;;;;;;7.01;78.46;100149.38;6329712;22;20013;-91
2022/02/03 21:49:14;;;;;;;10.40;6.82;;;;;;;7.45;78.60;100219.75;6335030;22;20023;-92
2022/02/03 21:51:45;;;;;;;;;;;;;;;7.45;78.73;100218.00;6334951;22;20376;-92
2022/02/03 21:54:13;;;;;;;;;;;;;;;7.39;79.36;100218.25;6337457;22;20004;-91
2022/02/03 21:56:43;;;;;;;9.25;6.15;;;;;;;7.15;79.76;100193.63;6335345;22;19933;-90
2022/02/03 21:59:15;;;;;;;10.02;6.95;;;;;;;7.17;80.17;100202.34;6337945;22;20109;-92
2022/02/03 22:01:49;;;;;;;11.07;6.95;;;;;;;7.20;79.51;100199.59;6314770;22;20022;-90